createdAt,value
2023-05-13T00:01:20.708Z,4.12
2023-05-13T00:04:08.691Z,3.65
2023-05-13T00:06:55.904Z,4.10
2023-05-13T00:09:43.351Z,3.67
2023-05-13T00:12:31.276Z,3.77
2023-05-13T00:15:18.757Z,3.90
2023-05-13T00:18:06.312Z,3.75
2023-05-13T00:20:53.879Z,3.77
2023-05-13T00:23:41.935Z,3.65
2023-05-13T00:26:29.107Z,3.55
2023-05-13T00:29:16.649Z,4.03
2023-05-13T00:32:04.573Z,3.42
2023-05-13T00:34:52.326Z,3.00
2023-05-13T00:37:39.856Z,3.50
2023-05-13T00:40:27.050Z,3.62
2023-05-13T00:43:14.787Z,3.17
2023-05-13T00:46:02.358Z,3.12
2023-05-13T00:48:50.070Z,3.27
2023-05-13T00:51:37.978Z,3.90
2023-05-13T00:54:25.826Z,3.55
2023-05-13T00:57:13.379Z,3.17
2023-05-13T01:00:01.657Z,3.40
2023-05-13T01:03:09.733Z,3.40
2023-05-13T01:06:09.824Z,3.20
2023-05-13T01:09:05.902Z,3.02
2023-05-13T01:11:55.289Z,2.80
2023-05-13T01:14:45.892Z,2.85
2023-05-13T01:17:45.066Z,3.00
2023-05-13T01:20:34.104Z,2.83
2023-05-13T01:23:21.600Z,2.80
2023-05-13T01:26:08.989Z,2.75
2023-05-13T01:28:56.666Z,2.98
2023-05-13T01:31:44.446Z,2.90
2023-05-13T01:34:32.977Z,3.08
2023-05-13T01:37:21.122Z,2.65
2023-05-13T01:40:20.408Z,2.52
2023-05-13T01:42:58.316Z,2.95
2023-05-13T01:45:46.082Z,2.50
2023-05-13T01:48:33.715Z,2.83
2023-05-13T01:51:21.122Z,2.77
2023-05-13T01:54:08.490Z,2.58
2023-05-13T01:56:55.960Z,2.40
2023-05-13T01:59:43.372Z,2.50
2023-05-13T02:02:30.878Z,2.77
2023-05-13T02:05:18.498Z,2.83
2023-05-13T02:08:06.417Z,2.80
2023-05-13T02:11:00.539Z,2.67
2023-05-13T02:13:48.165Z,2.98
2023-05-13T02:16:35.676Z,2.75
2023-05-13T02:19:24.609Z,2.47
2023-05-13T02:22:12.194Z,2.47
2023-05-13T02:24:59.377Z,2.27
2023-05-13T02:27:46.626Z,2.35
2023-05-13T02:30:34.302Z,2.50
2023-05-13T02:33:21.370Z,2.90
2023-05-13T02:36:08.729Z,2.50
2023-05-13T02:38:56.027Z,2.70
2023-05-13T02:41:44.555Z,2.70
2023-05-13T02:44:31.640Z,2.67
2023-05-13T02:47:18.883Z,2.47
2023-05-13T02:50:07.930Z,2.45
2023-05-13T02:52:55.538Z,2.55
2023-05-13T02:55:43.013Z,2.75
2023-05-13T02:58:30.633Z,2.70
2023-05-13T03:01:18.110Z,2.75
2023-05-13T03:04:05.389Z,2.87
2023-05-13T03:06:53.050Z,2.52
2023-05-13T03:09:41.691Z,3.00
2023-05-13T03:12:29.201Z,2.75
2023-05-13T03:15:17.194Z,3.02
2023-05-13T03:18:04.617Z,2.80
2023-05-13T03:20:52.149Z,2.80
2023-05-13T03:23:39.421Z,2.58
2023-05-13T03:26:26.726Z,2.80
2023-05-13T03:29:14.040Z,2.92
2023-05-13T03:32:01.734Z,2.72
2023-05-13T03:34:48.938Z,2.85
2023-05-13T03:37:36.415Z,3.10
2023-05-13T03:40:23.659Z,2.70
2023-05-13T03:43:11.208Z,3.35
2023-05-13T03:45:58.737Z,2.50
2023-05-13T03:48:46.558Z,2.87
2023-05-13T03:51:34.216Z,2.90
2023-05-13T03:54:21.536Z,2.92
2023-05-13T03:57:09.426Z,2.42
2023-05-13T03:59:56.913Z,2.70
2023-05-13T04:02:44.693Z,2.62
2023-05-13T04:05:32.216Z,3.00
2023-05-13T04:08:19.477Z,2.52
2023-05-13T04:11:06.908Z,2.92
2023-05-13T04:13:54.428Z,2.67
2023-05-13T04:16:42.071Z,3.12
2023-05-13T04:19:29.396Z,2.77
2023-05-13T04:22:16.798Z,2.67
2023-05-13T04:25:04.852Z,2.80
2023-05-13T04:27:52.313Z,2.50
2023-05-13T04:30:39.762Z,2.75
2023-05-13T04:33:27.713Z,2.60
2023-05-13T04:36:15.332Z,2.65
2023-05-13T04:39:03.564Z,2.70
2023-05-13T04:41:50.878Z,2.80
2023-05-13T04:44:38.520Z,3.05
2023-05-13T04:47:26.052Z,2.80
2023-05-13T04:50:13.210Z,2.62
2023-05-13T04:53:00.799Z,2.50
2023-05-13T04:55:50.360Z,2.37
2023-05-13T04:58:37.538Z,2.40
2023-05-13T05:01:24.782Z,2.52
2023-05-13T05:04:12.763Z,2.20
2023-05-13T05:07:00.221Z,2.40
2023-05-13T05:09:47.540Z,2.50
2023-05-13T05:12:34.792Z,2.52
2023-05-13T05:15:22.628Z,2.12
2023-05-13T05:18:10.245Z,2.08
2023-05-13T05:20:57.737Z,2.15
2023-05-13T05:23:45.951Z,2.00
2023-05-13T05:26:33.298Z,2.52
2023-05-13T05:29:20.700Z,2.00
2023-05-13T05:32:08.608Z,2.10
2023-05-13T05:34:56.269Z,2.15
2023-05-13T05:37:43.744Z,2.10
2023-05-13T05:40:31.855Z,2.08
2023-05-13T05:43:19.158Z,2.22
2023-05-13T05:46:07.025Z,1.87
2023-05-13T05:48:54.298Z,1.90
2023-05-13T05:51:41.909Z,2.20
2023-05-13T05:54:29.569Z,2.05
2023-05-13T05:57:16.970Z,2.27
2023-05-13T06:00:04.978Z,2.40
2023-05-13T06:02:52.104Z,2.33
2023-05-13T06:05:40.249Z,2.33
2023-05-13T06:08:29.094Z,2.30
2023-05-13T06:11:16.624Z,2.17
2023-05-13T06:14:03.666Z,2.02
2023-05-13T06:16:51.502Z,2.33
2023-05-13T06:19:40.106Z,2.40
2023-05-13T06:22:27.602Z,2.20
2023-05-13T06:25:15.718Z,2.35
2023-05-13T06:28:03.276Z,2.30
2023-05-13T06:30:50.548Z,2.47
2023-05-13T06:33:38.063Z,2.20
2023-05-13T06:36:25.318Z,2.10
2023-05-13T06:39:13.926Z,2.22
2023-05-13T06:42:01.026Z,2.25
2023-05-13T06:44:48.226Z,2.20
2023-05-13T06:47:35.720Z,2.17
2023-05-13T06:50:23.202Z,2.00
2023-05-13T06:53:14.040Z,2.17
2023-05-13T06:56:01.606Z,2.30
2023-05-13T06:58:50.680Z,2.30
2023-05-13T07:01:38.576Z,2.47
2023-05-13T07:04:25.981Z,2.33
2023-05-13T07:07:13.120Z,2.30
2023-05-13T07:10:00.353Z,2.42
2023-05-13T07:12:48.219Z,2.25
2023-05-13T07:15:35.874Z,2.27
2023-05-13T07:18:23.756Z,2.30
2023-05-13T07:21:11.301Z,2.05
2023-05-13T07:23:58.800Z,2.10
2023-05-13T07:26:45.944Z,2.10
2023-05-13T07:29:33.222Z,2.47
2023-05-13T07:32:20.846Z,2.05
2023-05-13T07:35:09.076Z,2.27
2023-05-13T07:37:56.202Z,2.37
2023-05-13T07:40:43.634Z,2.00
2023-05-13T07:43:31.961Z,2.30
2023-05-13T07:46:19.196Z,2.00
2023-05-13T07:49:08.345Z,2.20
2023-05-13T07:51:56.649Z,2.37
2023-05-13T07:54:43.803Z,2.10
2023-05-13T07:57:31.112Z,2.10
2023-05-13T08:00:18.511Z,2.12
2023-05-13T08:03:06.029Z,2.50
2023-05-13T08:05:53.834Z,2.65
2023-05-13T08:08:41.387Z,2.30
2023-05-13T08:11:29.440Z,2.35
2023-05-13T08:14:17.113Z,2.65
2023-05-13T08:17:07.837Z,2.40
2023-05-13T08:19:55.205Z,2.40
2023-05-13T08:22:43.552Z,2.45
2023-05-13T08:25:31.011Z,2.40
2023-05-13T08:28:18.285Z,2.33
2023-05-13T08:31:05.814Z,2.35
2023-05-13T08:33:54.091Z,2.27
2023-05-13T08:36:41.690Z,2.00
2023-05-13T08:39:29.361Z,2.20
2023-05-13T08:42:20.863Z,2.40
2023-05-13T08:45:10.278Z,2.15
2023-05-13T08:48:04.946Z,2.42
2023-05-13T08:50:52.674Z,2.47
2023-05-13T08:53:44.899Z,2.70
2023-05-13T08:56:32.790Z,2.27
2023-05-13T08:59:20.337Z,2.33
2023-05-13T09:02:07.862Z,2.37
2023-05-13T09:04:56.947Z,2.83
2023-05-13T09:07:44.294Z,2.17
2023-05-13T09:10:32.019Z,2.30
2023-05-13T09:13:19.592Z,2.10
2023-05-13T09:16:07.622Z,2.33
2023-05-13T09:19:00.635Z,2.10
2023-05-13T09:21:47.913Z,2.17
2023-05-13T09:24:35.687Z,2.25
2023-05-13T09:27:26.136Z,2.25
2023-05-13T09:30:14.115Z,2.10
2023-05-13T09:33:15.997Z,2.50
2023-05-13T09:36:05.829Z,2.35
2023-05-13T09:38:56.074Z,2.50
2023-05-13T09:41:43.523Z,2.60
2023-05-13T09:44:31.112Z,2.47
2023-05-13T09:47:18.974Z,2.50
2023-05-13T09:50:07.971Z,2.05
2023-05-13T09:52:55.462Z,2.40
2023-05-13T09:55:50.895Z,2.45
2023-05-13T09:58:38.261Z,2.58
2023-05-13T10:01:28.616Z,2.47
2023-05-13T10:04:16.521Z,2.17
2023-05-13T10:07:06.498Z,2.70
2023-05-13T10:09:55.327Z,2.72
2023-05-13T10:12:43.231Z,2.80
2023-05-13T10:15:30.855Z,2.50
2023-05-13T10:18:19.642Z,2.70
2023-05-13T10:21:07.593Z,2.70
2023-05-13T10:23:55.155Z,2.70
2023-05-13T10:26:43.720Z,2.58
2023-05-13T10:29:31.399Z,2.45
2023-05-13T10:32:19.287Z,2.87
2023-05-13T10:35:12.181Z,2.60
2023-05-13T10:38:08.504Z,2.65
2023-05-13T10:41:11.236Z,2.80
2023-05-13T10:44:00.140Z,2.77
2023-05-13T10:46:49.135Z,3.25
2023-05-13T10:49:37.213Z,2.70
2023-05-13T10:52:24.516Z,2.90
2023-05-13T10:55:17.735Z,2.83
2023-05-13T10:58:13.715Z,3.15
2023-05-13T11:01:20.795Z,2.80
2023-05-13T11:09:42.011Z,2.70
2023-05-13T11:12:29.307Z,2.80
2023-05-13T11:15:23.210Z,2.80
2023-05-13T11:18:12.316Z,3.05
2023-05-13T11:21:05.571Z,2.83
2023-05-13T11:24:01.554Z,2.90
2023-05-13T11:26:57.417Z,2.73
2023-05-13T11:29:58.022Z,2.80
2023-05-13T11:32:59.021Z,2.70
2023-05-13T11:35:49.590Z,2.58
2023-05-13T11:38:36.797Z,2.55
2023-05-13T11:41:25.574Z,3.20
2023-05-13T11:44:14.927Z,2.90
2023-05-13T11:47:06.003Z,3.50
2023-05-13T11:49:53.480Z,3.30
2023-05-13T11:52:40.673Z,3.05
2023-05-13T11:55:29.616Z,3.80
2023-05-13T11:58:16.731Z,3.95
2023-05-13T12:01:03.847Z,3.37
2023-05-13T12:03:51.560Z,2.72
2023-05-13T12:06:48.978Z,3.08
2023-05-13T12:09:36.626Z,2.85
2023-05-13T12:12:24.376Z,2.83
2023-05-13T12:15:14.957Z,2.87
2023-05-13T12:18:02.770Z,2.70
2023-05-13T12:20:51.508Z,2.65
2023-05-13T12:23:41.830Z,2.67
2023-05-13T12:26:29.611Z,2.98
2023-05-13T12:29:17.112Z,2.90
2023-05-13T12:32:06.658Z,2.65
2023-05-13T12:34:54.374Z,3.25
2023-05-13T12:37:42.392Z,2.92
2023-05-13T12:40:29.862Z,2.95
2023-05-13T12:43:18.805Z,3.00
2023-05-13T12:46:08.036Z,3.15
2023-05-13T12:49:01.098Z,2.80
2023-05-13T12:51:48.413Z,2.55
2023-05-13T12:54:35.705Z,2.10
2023-05-13T12:57:24.276Z,2.22
2023-05-13T13:00:12.049Z,4.28
2023-05-13T13:02:59.355Z,3.10
2023-05-13T13:05:47.192Z,2.75
2023-05-13T13:08:34.631Z,2.52
2023-05-13T13:11:22.114Z,1.50
2023-05-13T13:14:09.494Z,1.67
2023-05-13T13:16:56.929Z,2.30
2023-05-13T13:19:44.780Z,4.42
2023-05-13T13:22:32.558Z,2.20
2023-05-13T13:25:20.484Z,2.22
2023-05-13T13:28:07.869Z,1.85
2023-05-13T13:30:55.100Z,1.77
2023-05-13T13:33:42.334Z,1.52
2023-05-13T13:36:32.379Z,2.05
2023-05-13T13:39:19.502Z,2.22
2023-05-13T13:42:07.015Z,1.90
2023-05-13T13:44:54.196Z,1.72
2023-05-13T13:47:42.318Z,1.70
2023-05-13T13:50:29.617Z,1.80
2023-05-13T13:53:16.811Z,1.80
2023-05-13T13:56:04.460Z,1.37
2023-05-13T13:58:52.019Z,1.60
2023-05-13T14:01:40.117Z,1.50
2023-05-13T14:04:27.931Z,1.60
2023-05-13T14:07:15.508Z,1.50
2023-05-13T14:10:03.148Z,2.02
2023-05-13T14:12:50.406Z,1.60
2023-05-13T14:15:39.291Z,1.55
2023-05-13T14:18:26.892Z,1.50
2023-05-13T14:21:14.494Z,1.60
2023-05-13T14:24:01.737Z,1.60
2023-05-13T14:26:49.309Z,1.67
2023-05-13T14:29:36.593Z,1.70
2023-05-13T14:32:24.143Z,2.00
2023-05-13T14:35:12.120Z,2.02
2023-05-13T14:37:59.692Z,1.90
2023-05-13T14:40:47.186Z,2.08
2023-05-13T14:43:34.484Z,1.67
2023-05-13T14:46:22.244Z,1.85
2023-05-13T14:49:09.716Z,1.82
2023-05-13T14:51:57.149Z,2.00
2023-05-13T14:54:44.566Z,1.85
2023-05-13T14:57:31.998Z,3.08
2023-05-13T15:00:19.500Z,2.12
2023-05-13T15:03:07.551Z,2.00
2023-05-13T15:05:55.996Z,2.08
2023-05-13T15:08:43.376Z,1.82
2023-05-13T15:11:30.970Z,1.98
2023-05-13T15:14:18.431Z,2.27
2023-05-13T15:17:07.792Z,2.45
2023-05-13T15:19:55.075Z,2.37
2023-05-13T15:22:42.617Z,2.20
2023-05-13T15:25:30.772Z,2.15
2023-05-13T15:28:17.951Z,2.45
2023-05-13T15:31:06.479Z,2.20
2023-05-13T15:33:54.030Z,2.10
2023-05-13T15:36:41.419Z,2.15
2023-05-13T15:39:28.559Z,2.00
2023-05-13T15:42:15.790Z,2.17
2023-05-13T15:45:03.360Z,2.20
2023-05-13T15:47:50.896Z,2.08
2023-05-13T15:50:38.136Z,2.00
2023-05-13T15:53:25.430Z,2.70
2023-05-13T15:56:13.017Z,2.00
2023-05-13T15:59:00.560Z,2.45
2023-05-13T16:01:47.938Z,2.60
2023-05-13T16:04:35.408Z,2.17
2023-05-13T16:07:24.068Z,2.33
2023-05-13T16:10:12.209Z,2.15
2023-05-13T16:12:59.692Z,2.05
2023-05-13T16:15:47.042Z,2.40
2023-05-13T16:18:34.332Z,2.55
2023-05-13T16:21:21.819Z,2.70
2023-05-13T16:24:09.103Z,2.45
2023-05-13T16:26:56.350Z,2.15
2023-05-13T16:29:43.929Z,2.30
2023-05-13T16:32:31.291Z,2.45
2023-05-13T16:35:19.386Z,2.70
2023-05-13T16:38:06.883Z,2.35
2023-05-13T16:40:54.168Z,2.10
2023-05-13T16:43:41.648Z,2.58
2023-05-13T16:46:30.139Z,2.55
2023-05-13T16:49:17.555Z,2.25
2023-05-13T16:52:07.046Z,2.37
2023-05-13T16:54:56.059Z,2.17
2023-05-13T16:57:44.547Z,2.75
2023-05-13T17:00:32.336Z,2.42
2023-05-13T17:03:20.079Z,2.10
2023-05-13T17:06:07.732Z,2.60
2023-05-13T17:08:55.076Z,2.80
2023-05-13T17:11:42.671Z,2.67
2023-05-13T17:14:30.071Z,2.92
2023-05-13T17:17:17.516Z,2.50
2023-05-13T17:20:05.579Z,2.35
2023-05-13T17:22:52.779Z,2.70
2023-05-13T17:25:39.958Z,2.52
2023-05-13T17:28:27.429Z,2.70
2023-05-13T17:31:14.705Z,2.52
2023-05-13T17:34:02.296Z,2.90
2023-05-13T17:36:50.184Z,2.75
2023-05-13T17:39:37.763Z,2.62
2023-05-13T17:42:24.932Z,2.27
2023-05-13T17:45:12.275Z,2.33
2023-05-13T17:47:59.976Z,2.60
2023-05-13T17:50:47.066Z,2.50
2023-05-13T17:53:35.147Z,2.80
2023-05-13T17:56:22.405Z,2.80
2023-05-13T17:59:09.920Z,3.25
2023-05-13T18:01:57.301Z,3.25
2023-05-13T18:04:44.557Z,3.47
2023-05-13T18:07:32.097Z,3.00
2023-05-13T18:10:19.417Z,2.85
2023-05-13T18:13:06.549Z,2.90
2023-05-13T18:15:54.175Z,2.60
2023-05-13T18:18:41.651Z,3.02
2023-05-13T18:21:29.293Z,2.92
2023-05-13T18:24:16.969Z,3.12
2023-05-13T18:27:04.311Z,2.77
2023-05-13T18:29:51.563Z,2.95
2023-05-13T18:32:39.779Z,3.52
2023-05-13T18:35:27.312Z,3.40
2023-05-13T18:38:14.765Z,2.83
2023-05-13T18:41:03.526Z,3.15
2023-05-13T18:43:51.362Z,3.00
2023-05-13T18:46:38.466Z,3.05
2023-05-13T18:49:29.359Z,2.90
2023-05-13T18:52:16.900Z,3.25
2023-05-13T18:55:05.775Z,3.30
2023-05-13T18:57:53.225Z,3.25
2023-05-13T19:00:40.781Z,3.20
2023-05-13T19:03:28.591Z,2.90
2023-05-13T19:06:15.766Z,2.70
2023-05-13T19:09:03.324Z,3.33
2023-05-13T19:11:50.923Z,2.72
2023-05-13T19:14:38.118Z,2.65
2023-05-13T19:17:25.541Z,3.08
2023-05-13T19:20:13.096Z,2.67
2023-05-13T19:23:00.459Z,3.05
2023-05-13T19:25:48.851Z,2.47
2023-05-13T19:28:38.775Z,3.37
2023-05-13T19:31:27.437Z,2.83
2023-05-13T19:34:14.903Z,2.80
2023-05-13T19:37:02.555Z,3.15
2023-05-13T19:39:49.817Z,2.83
2023-05-13T19:42:37.165Z,3.10
2023-05-13T19:45:24.932Z,3.20
2023-05-13T19:48:13.151Z,3.22
2023-05-13T19:51:00.611Z,3.15
2023-05-13T19:53:48.268Z,3.02
2023-05-13T19:56:35.910Z,2.42
2023-05-13T19:59:23.558Z,3.08
2023-05-13T20:02:10.961Z,2.95
2023-05-13T20:04:58.591Z,3.20
2023-05-13T20:07:45.996Z,3.02
2023-05-13T20:10:35.157Z,3.37
2023-05-13T20:13:22.407Z,3.40
2023-05-13T20:16:10.200Z,3.40
2023-05-13T20:18:57.529Z,3.20
2023-05-13T20:21:45.014Z,3.52
2023-05-13T20:24:32.376Z,3.35
2023-05-13T20:27:19.986Z,3.40
2023-05-13T20:30:08.443Z,3.60
2023-05-13T20:32:55.505Z,3.80
2023-05-13T20:35:42.996Z,3.72
2023-05-13T20:38:30.603Z,3.58
2023-05-13T20:41:18.062Z,3.98
2023-05-13T20:44:06.595Z,3.85
2023-05-13T20:46:54.090Z,3.70
2023-05-13T20:49:43.119Z,4.05
2023-05-13T20:52:30.666Z,4.20
2023-05-13T20:55:17.929Z,4.15
2023-05-13T20:58:05.598Z,4.60
2023-05-13T21:00:53.279Z,4.12
2023-05-13T21:03:40.616Z,4.12
2023-05-13T21:06:29.276Z,4.00
2023-05-13T21:09:16.738Z,4.05
2023-05-13T21:12:04.240Z,4.65
2023-05-13T21:14:51.455Z,4.65
2023-05-13T21:17:38.792Z,4.30
2023-05-13T21:20:26.062Z,4.45
2023-05-13T21:23:13.811Z,4.42
2023-05-13T21:26:02.744Z,3.87
2023-05-13T21:28:50.150Z,4.22
2023-05-13T21:31:37.773Z,4.20
2023-05-13T21:34:25.219Z,4.67
2023-05-13T21:37:12.708Z,4.47
2023-05-13T21:40:00.528Z,4.30
2023-05-13T21:42:48.142Z,4.00
2023-05-13T21:45:36.046Z,4.40
2023-05-13T21:48:23.526Z,3.90
2023-05-13T21:51:11.105Z,4.70
2023-05-13T21:53:59.217Z,4.20
2023-05-13T21:56:47.030Z,4.28
2023-05-13T21:59:34.211Z,4.00
2023-05-13T22:02:21.975Z,4.40
2023-05-13T22:05:09.578Z,4.37
2023-05-13T22:07:57.037Z,4.50
2023-05-13T22:10:44.682Z,4.40
2023-05-13T22:13:31.958Z,4.53
2023-05-13T22:16:19.569Z,4.45
2023-05-13T22:19:06.949Z,4.42
2023-05-13T22:21:54.150Z,4.42
2023-05-13T22:24:41.746Z,4.15
2023-05-13T22:27:28.998Z,3.98
2023-05-13T22:30:16.762Z,4.25
2023-05-13T22:33:03.952Z,4.08
2023-05-13T22:35:51.408Z,4.42
2023-05-13T22:38:38.962Z,4.22
2023-05-13T22:41:26.708Z,4.15
2023-05-13T22:44:14.209Z,3.83
2023-05-13T22:47:01.842Z,4.50
2023-05-13T22:49:49.592Z,4.12
2023-05-13T22:52:37.212Z,4.37
2023-05-13T22:55:24.828Z,4.17
2023-05-13T22:58:12.410Z,4.60
2023-05-13T23:01:00.230Z,4.10
2023-05-13T23:03:47.667Z,4.60
2023-05-13T23:06:34.906Z,4.37
2023-05-13T23:09:22.457Z,4.22
2023-05-13T23:12:09.851Z,4.00
2023-05-13T23:14:57.383Z,3.90
2023-05-13T23:17:45.273Z,4.10
2023-05-13T23:20:32.654Z,4.00
2023-05-13T23:23:20.356Z,4.10
2023-05-13T23:26:07.591Z,4.60
2023-05-13T23:28:55.250Z,4.22
2023-05-13T23:31:42.628Z,4.25
2023-05-13T23:34:29.866Z,4.20
2023-05-13T23:37:17.906Z,4.53
2023-05-13T23:40:05.667Z,4.47
2023-05-13T23:42:52.949Z,4.50
2023-05-13T23:45:40.218Z,5.10
2023-05-13T23:48:31.620Z,4.67
2023-05-13T23:51:19.128Z,4.60
2023-05-13T23:54:08.026Z,4.65
2023-05-13T23:56:55.108Z,5.03
2023-05-13T23:59:42.635Z,4.85
